sensor_id;sensor_type;location;lat;lon;timestamp;P1;durP1;ratioP1;P2;durP2;ratioP2
10244;SDS011;5167;52.164;10.530;2023-10-31T00:00:20;8.50;;;6.18;;
10244;SDS011;5167;52.164;10.530;2023-10-31T00:02:45;14.02;;;6.25;;
10244;SDS011;5167;52.164;10.530;2023-10-31T00:05:11;13.75;;;7.15;;
10244;SDS011;5167;52.164;10.530;2023-10-31T00:07:37;10.40;;;6.05;;
10244;SDS011;5167;52.164;10.530;2023-10-31T00:10:02;8.85;;;6.05;;
10244;SDS011;5167;52.164;10.530;2023-10-31T00:12:28;11.13;;;6.57;;
10244;SDS011;5167;52.164;10.530;2023-10-31T00:14:53;12.15;;;6.63;;
10244;SDS011;5167;52.164;10.530;2023-10-31T00:17:19;12.70;;;7.03;;
10244;SDS011;5167;52.164;10.530;2023-10-31T00:19:44;11.10;;;6.53;;
10244;SDS011;5167;52.164;10.530;2023-10-31T00:22:10;14.80;;;6.95;;
10244;SDS011;5167;52.164;10.530;2023-10-31T00:24:35;9.85;;;6.68;;
10244;SDS011;5167;52.164;10.530;2023-10-31T00:27:01;11.20;;;6.53;;
10244;SDS011;5167;52.164;10.530;2023-10-31T00:29:27;9.25;;;6.78;;
10244;SDS011;5167;52.164;10.530;2023-10-31T00:31:52;12.68;;;6.75;;
10244;SDS011;5167;52.164;10.530;2023-10-31T00:34:18;14.05;;;7.10;;
10244;SDS011;5167;52.164;10.530;2023-10-31T00:36:43;12.48;;;6.75;;
10244;SDS011;5167;52.164;10.530;2023-10-31T00:39:09;15.50;;;7.95;;
10244;SDS011;5167;52.164;10.530;2023-10-31T00:41:34;12.30;;;7.32;;
10244;SDS011;5167;52.164;10.530;2023-10-31T00:44:00;12.25;;;7.88;;
10244;SDS011;5167;52.164;10.530;2023-10-31T00:46:25;12.25;;;7.68;;
10244;SDS011;5167;52.164;10.530;2023-10-31T00:48:51;12.15;;;7.93;;
10244;SDS011;5167;52.164;10.530;2023-10-31T00:51:17;11.90;;;7.93;;
10244;SDS011;5167;52.164;10.530;2023-10-31T00:53:42;10.80;;;7.13;;
10244;SDS011;5167;52.164;10.530;2023-10-31T00:56:08;13.48;;;8.73;;
10244;SDS011;5167;52.164;10.530;2023-10-31T00:58:33;17.52;;;8.30;;
10244;SDS011;5167;52.164;10.530;2023-10-31T01:00:59;13.93;;;8.57;;
10244;SDS011;5167;52.164;10.530;2023-10-31T01:03:24;12.75;;;7.93;;
10244;SDS011;5167;52.164;10.530;2023-10-31T01:05:50;14.85;;;8.77;;
10244;SDS011;5167;52.164;10.530;2023-10-31T01:08:15;13.82;;;7.82;;
10244;SDS011;5167;52.164;10.530;2023-10-31T01:10:41;12.75;;;8.63;;
10244;SDS011;5167;52.164;10.530;2023-10-31T01:13:06;14.77;;;7.95;;
10244;SDS011;5167;52.164;10.530;2023-10-31T01:15:32;12.80;;;8.75;;
10244;SDS011;5167;52.164;10.530;2023-10-31T01:17:57;13.15;;;8.50;;
10244;SDS011;5167;52.164;10.530;2023-10-31T01:20:23;19.38;;;8.82;;
10244;SDS011;5167;52.164;10.530;2023-10-31T01:22:49;13.00;;;8.18;;
10244;SDS011;5167;52.164;10.530;2023-10-31T01:25:14;12.15;;;7.88;;
10244;SDS011;5167;52.164;10.530;2023-10-31T01:27:40;15.68;;;8.15;;
10244;SDS011;5167;52.164;10.530;2023-10-31T01:30:07;14.82;;;8.88;;
10244;SDS011;5167;52.164;10.530;2023-10-31T01:32:33;12.70;;;8.70;;
10244;SDS011;5167;52.164;10.530;2023-10-31T01:34:58;14.73;;;8.55;;
10244;SDS011;5167;52.164;10.530;2023-10-31T01:37:24;12.02;;;8.40;;
10244;SDS011;5167;52.164;10.530;2023-10-31T01:39:50;13.63;;;8.77;;
10244;SDS011;5167;52.164;10.530;2023-10-31T01:42:16;15.43;;;8.60;;
10244;SDS011;5167;52.164;10.530;2023-10-31T01:44:42;17.55;;;8.77;;
10244;SDS011;5167;52.164;10.530;2023-10-31T01:47:07;13.52;;;9.10;;
10244;SDS011;5167;52.164;10.530;2023-10-31T01:49:34;16.25;;;8.93;;
10244;SDS011;5167;52.164;10.530;2023-10-31T01:52:00;16.13;;;8.68;;
10244;SDS011;5167;52.164;10.530;2023-10-31T01:54:27;11.75;;;7.95;;
10244;SDS011;5167;52.164;10.530;2023-10-31T01:56:56;14.52;;;9.57;;
10244;SDS011;5167;52.164;10.530;2023-10-31T01:59:29;15.93;;;8.45;;
10244;SDS011;5167;52.164;10.530;2023-10-31T02:01:55;13.07;;;8.48;;
10244;SDS011;5167;52.164;10.530;2023-10-31T02:04:22;13.90;;;8.88;;
10244;SDS011;5167;52.164;10.530;2023-10-31T02:06:48;13.90;;;9.68;;
10244;SDS011;5167;52.164;10.530;2023-10-31T02:09:14;14.23;;;8.07;;
10244;SDS011;5167;52.164;10.530;2023-10-31T02:11:39;13.18;;;8.43;;
10244;SDS011;5167;52.164;10.530;2023-10-31T02:14:05;14.70;;;8.68;;
10244;SDS011;5167;52.164;10.530;2023-10-31T02:16:30;17.70;;;8.65;;
10244;SDS011;5167;52.164;10.530;2023-10-31T02:18:56;14.85;;;8.63;;
10244;SDS011;5167;52.164;10.530;2023-10-31T02:21:21;17.00;;;8.27;;
10244;SDS011;5167;52.164;10.530;2023-10-31T02:24:01;15.45;;;9.15;;
10244;SDS011;5167;52.164;10.530;2023-10-31T02:26:28;13.95;;;8.98;;
10244;SDS011;5167;52.164;10.530;2023-10-31T02:28:57;15.90;;;9.07;;
10244;SDS011;5167;52.164;10.530;2023-10-31T02:31:23;14.82;;;8.80;;
10244;SDS011;5167;52.164;10.530;2023-10-31T02:33:49;17.25;;;8.63;;
10244;SDS011;5167;52.164;10.530;2023-10-31T02:36:14;13.48;;;9.18;;
10244;SDS011;5167;52.164;10.530;2023-10-31T02:38:40;10.93;;;7.38;;
10244;SDS011;5167;52.164;10.530;2023-10-31T02:41:05;14.07;;;8.90;;
10244;SDS011;5167;52.164;10.530;2023-10-31T02:43:31;15.88;;;9.20;;
10244;SDS011;5167;52.164;10.530;2023-10-31T02:45:56;14.65;;;8.30;;
10244;SDS011;5167;52.164;10.530;2023-10-31T02:48:22;11.45;;;7.95;;
10244;SDS011;5167;52.164;10.530;2023-10-31T02:50:48;12.30;;;8.60;;
10244;SDS011;5167;52.164;10.530;2023-10-31T02:53:14;12.02;;;7.65;;
10244;SDS011;5167;52.164;10.530;2023-10-31T02:55:39;11.15;;;8.15;;
10244;SDS011;5167;52.164;10.530;2023-10-31T02:58:05;12.77;;;8.38;;
10244;SDS011;5167;52.164;10.530;2023-10-31T03:00:30;12.40;;;7.78;;
10244;SDS011;5167;52.164;10.530;2023-10-31T03:02:56;12.35;;;7.35;;
10244;SDS011;5167;52.164;10.530;2023-10-31T03:05:21;13.48;;;7.75;;
10244;SDS011;5167;52.164;10.530;2023-10-31T03:07:47;11.40;;;6.97;;
10244;SDS011;5167;52.164;10.530;2023-10-31T03:10:12;15.65;;;7.93;;
10244;SDS011;5167;52.164;10.530;2023-10-31T03:12:38;14.25;;;7.60;;
10244;SDS011;5167;52.164;10.530;2023-10-31T03:15:04;14.35;;;8.15;;
10244;SDS011;5167;52.164;10.530;2023-10-31T03:17:29;13.15;;;7.28;;
10244;SDS011;5167;52.164;10.530;2023-10-31T03:19:55;11.75;;;7.72;;
10244;SDS011;5167;52.164;10.530;2023-10-31T03:22:21;14.45;;;7.63;;
10244;SDS011;5167;52.164;10.530;2023-10-31T03:24:46;11.93;;;6.93;;
10244;SDS011;5167;52.164;10.530;2023-10-31T03:27:12;16.40;;;8.07;;
10244;SDS011;5167;52.164;10.530;2023-10-31T03:29:37;10.48;;;6.65;;
10244;SDS011;5167;52.164;10.530;2023-10-31T03:32:03;12.63;;;6.85;;
10244;SDS011;5167;52.164;10.530;2023-10-31T03:34:30;9.30;;;6.40;;
10244;SDS011;5167;52.164;10.530;2023-10-31T03:36:55;9.93;;;6.65;;
10244;SDS011;5167;52.164;10.530;2023-10-31T03:39:21;12.18;;;6.55;;
10244;SDS011;5167;52.164;10.530;2023-10-31T03:41:46;9.88;;;6.00;;
10244;SDS011;5167;52.164;10.530;2023-10-31T03:44:12;11.85;;;6.07;;
10244;SDS011;5167;52.164;10.530;2023-10-31T03:46:37;12.48;;;6.20;;
10244;SDS011;5167;52.164;10.530;2023-10-31T03:49:03;9.73;;;5.97;;
10244;SDS011;5167;52.164;10.530;2023-10-31T03:51:29;8.95;;;5.90;;
10244;SDS011;5167;52.164;10.530;2023-10-31T03:53:55;8.10;;;5.75;;
10244;SDS011;5167;52.164;10.530;2023-10-31T03:56:20;8.93;;;5.93;;
10244;SDS011;5167;52.164;10.530;2023-10-31T03:58:46;7.22;;;5.38;;
10244;SDS011;5167;52.164;10.530;2023-10-31T04:01:11;10.68;;;5.53;;
10244;SDS011;5167;52.164;10.530;2023-10-31T04:03:37;8.90;;;4.88;;
10244;SDS011;5167;52.164;10.530;2023-10-31T04:06:02;7.68;;;4.25;;
10244;SDS011;5167;52.164;10.530;2023-10-31T04:08:28;4.70;;;3.53;;
10244;SDS011;5167;52.164;10.530;2023-10-31T04:10:54;5.75;;;3.78;;
10244;SDS011;5167;52.164;10.530;2023-10-31T04:13:19;5.43;;;3.33;;
10244;SDS011;5167;52.164;10.530;2023-10-31T04:15:45;4.68;;;3.70;;
10244;SDS011;5167;52.164;10.530;2023-10-31T04:18:10;4.50;;;4.10;;
10244;SDS011;5167;52.164;10.530;2023-10-31T04:20:36;4.20;;;3.33;;
10244;SDS011;5167;52.164;10.530;2023-10-31T04:23:02;4.72;;;2.67;;
10244;SDS011;5167;52.164;10.530;2023-10-31T04:25:27;2.25;;;1.67;;
10244;SDS011;5167;52.164;10.530;2023-10-31T04:27:54;2.00;;;1.90;;
10244;SDS011;5167;52.164;10.530;2023-10-31T04:30:19;5.68;;;1.50;;
10244;SDS011;5167;52.164;10.530;2023-10-31T04:32:46;1.30;;;1.25;;
10244;SDS011;5167;52.164;10.530;2023-10-31T04:35:12;1.40;;;1.30;;
10244;SDS011;5167;52.164;10.530;2023-10-31T04:37:37;1.40;;;1.30;;
10244;SDS011;5167;52.164;10.530;2023-10-31T04:40:03;1.30;;;1.30;;
10244;SDS011;5167;52.164;10.530;2023-10-31T04:42:30;1.05;;;1.00;;
10244;SDS011;5167;52.164;10.530;2023-10-31T04:44:57;1.10;;;1.10;;
10244;SDS011;5167;52.164;10.530;2023-10-31T04:47:22;1.13;;;1.13;;
10244;SDS011;5167;52.164;10.530;2023-10-31T04:49:48;0.90;;;0.90;;
10244;SDS011;5167;52.164;10.530;2023-10-31T04:52:13;1.25;;;1.25;;
10244;SDS011;5167;52.164;10.530;2023-10-31T04:54:39;2.05;;;1.20;;
10244;SDS011;5167;52.164;10.530;2023-10-31T04:57:05;1.10;;;1.10;;
10244;SDS011;5167;52.164;10.530;2023-10-31T04:59:30;0.90;;;0.90;;
10244;SDS011;5167;52.164;10.530;2023-10-31T05:01:57;1.00;;;0.90;;
10244;SDS011;5167;52.164;10.530;2023-10-31T05:04:23;2.38;;;1.00;;
10244;SDS011;5167;52.164;10.530;2023-10-31T05:06:48;1.00;;;1.00;;
10244;SDS011;5167;52.164;10.530;2023-10-31T05:09:14;0.85;;;0.85;;
10244;SDS011;5167;52.164;10.530;2023-10-31T05:11:39;0.82;;;0.82;;
10244;SDS011;5167;52.164;10.530;2023-10-31T05:14:07;0.90;;;0.90;;
10244;SDS011;5167;52.164;10.530;2023-10-31T05:16:41;1.48;;;1.00;;
10244;SDS011;5167;52.164;10.530;2023-10-31T05:19:07;1.00;;;0.80;;
10244;SDS011;5167;52.164;10.530;2023-10-31T05:21:33;1.00;;;1.00;;
10244;SDS011;5167;52.164;10.530;2023-10-31T05:23:58;3.45;;;1.05;;
10244;SDS011;5167;52.164;10.530;2023-10-31T05:26:24;1.92;;;0.90;;
10244;SDS011;5167;52.164;10.530;2023-10-31T05:28:49;1.15;;;0.90;;
10244;SDS011;5167;52.164;10.530;2023-10-31T05:31:15;0.80;;;0.80;;
10244;SDS011;5167;52.164;10.530;2023-10-31T05:33:41;0.60;;;0.60;;
10244;SDS011;5167;52.164;10.530;2023-10-31T05:36:06;0.95;;;0.80;;
10244;SDS011;5167;52.164;10.530;2023-10-31T05:38:43;1.08;;;1.08;;
10244;SDS011;5167;52.164;10.530;2023-10-31T05:41:08;0.70;;;0.70;;
10244;SDS011;5167;52.164;10.530;2023-10-31T05:43:34;0.80;;;0.80;;
10244;SDS011;5167;52.164;10.530;2023-10-31T05:45:59;0.80;;;0.80;;
10244;SDS011;5167;52.164;10.530;2023-10-31T05:48:25;0.80;;;0.80;;
10244;SDS011;5167;52.164;10.530;2023-10-31T05:50:50;1.30;;;0.80;;
10244;SDS011;5167;52.164;10.530;2023-10-31T05:53:16;0.70;;;0.70;;
10244;SDS011;5167;52.164;10.530;2023-10-31T05:55:41;2.00;;;0.82;;
10244;SDS011;5167;52.164;10.530;2023-10-31T05:58:07;0.82;;;0.70;;
10244;SDS011;5167;52.164;10.530;2023-10-31T06:00:32;0.68;;;0.68;;
10244;SDS011;5167;52.164;10.530;2023-10-31T06:02:58;0.70;;;0.70;;
10244;SDS011;5167;52.164;10.530;2023-10-31T06:05:23;2.20;;;0.63;;
10244;SDS011;5167;52.164;10.530;2023-10-31T06:07:49;0.70;;;0.70;;
10244;SDS011;5167;52.164;10.530;2023-10-31T06:10:15;0.77;;;0.77;;
10244;SDS011;5167;52.164;10.530;2023-10-31T06:12:40;0.95;;;0.80;;
10244;SDS011;5167;52.164;10.530;2023-10-31T06:15:06;0.85;;;0.85;;
10244;SDS011;5167;52.164;10.530;2023-10-31T06:17:33;1.13;;;0.77;;
10244;SDS011;5167;52.164;10.530;2023-10-31T06:19:59;0.80;;;0.80;;
10244;SDS011;5167;52.164;10.530;2023-10-31T06:22:25;0.80;;;0.80;;
10244;SDS011;5167;52.164;10.530;2023-10-31T06:24:51;0.90;;;0.90;;
10244;SDS011;5167;52.164;10.530;2023-10-31T06:27:16;0.93;;;0.93;;
10244;SDS011;5167;52.164;10.530;2023-10-31T06:29:42;2.05;;;1.00;;
10244;SDS011;5167;52.164;10.530;2023-10-31T06:32:07;1.20;;;1.20;;
10244;SDS011;5167;52.164;10.530;2023-10-31T06:34:33;1.40;;;1.20;;
10244;SDS011;5167;52.164;10.530;2023-10-31T06:36:58;1.58;;;1.10;;
10244;SDS011;5167;52.164;10.530;2023-10-31T06:39:24;1.73;;;1.17;;
10244;SDS011;5167;52.164;10.530;2023-10-31T06:41:49;1.60;;;1.52;;
10244;SDS011;5167;52.164;10.530;2023-10-31T06:44:19;1.88;;;1.42;;
10244;SDS011;5167;52.164;10.530;2023-10-31T06:46:44;2.35;;;1.67;;
10244;SDS011;5167;52.164;10.530;2023-10-31T06:49:10;2.05;;;1.70;;
10244;SDS011;5167;52.164;10.530;2023-10-31T06:51:35;1.55;;;1.38;;
10244;SDS011;5167;52.164;10.530;2023-10-31T06:54:01;1.50;;;1.40;;
10244;SDS011;5167;52.164;10.530;2023-10-31T06:56:27;1.35;;;1.33;;
10244;SDS011;5167;52.164;10.530;2023-10-31T06:58:53;1.58;;;1.48;;
10244;SDS011;5167;52.164;10.530;2023-10-31T07:01:19;1.63;;;1.33;;
10244;SDS011;5167;52.164;10.530;2023-10-31T07:03:44;1.83;;;1.73;;
10244;SDS011;5167;52.164;10.530;2023-10-31T07:06:10;1.69;;;1.60;;
10244;SDS011;5167;52.164;10.530;2023-10-31T07:08:36;1.70;;;1.40;;
10244;SDS011;5167;52.164;10.530;2023-10-31T07:11:01;2.05;;;1.50;;
10244;SDS011;5167;52.164;10.530;2023-10-31T07:13:27;2.85;;;1.90;;
10244;SDS011;5167;52.164;10.530;2023-10-31T07:15:52;1.60;;;1.50;;
10244;SDS011;5167;52.164;10.530;2023-10-31T07:18:18;1.83;;;1.55;;
10244;SDS011;5167;52.164;10.530;2023-10-31T07:20:43;1.80;;;1.63;;
10244;SDS011;5167;52.164;10.530;2023-10-31T07:23:09;2.20;;;1.88;;
10244;SDS011;5167;52.164;10.530;2023-10-31T07:25:34;2.38;;;1.80;;
10244;SDS011;5167;52.164;10.530;2023-10-31T07:28:00;1.75;;;1.65;;
10244;SDS011;5167;52.164;10.530;2023-10-31T07:30:25;1.88;;;1.50;;
10244;SDS011;5167;52.164;10.530;2023-10-31T07:32:51;2.10;;;1.90;;
10244;SDS011;5167;52.164;10.530;2023-10-31T07:35:18;4.07;;;1.98;;
10244;SDS011;5167;52.164;10.530;2023-10-31T07:37:44;1.38;;;1.33;;
10244;SDS011;5167;52.164;10.530;2023-10-31T07:40:10;2.63;;;1.58;;
10244;SDS011;5167;52.164;10.530;2023-10-31T07:42:36;3.67;;;1.77;;
10244;SDS011;5167;52.164;10.530;2023-10-31T07:45:02;3.45;;;1.95;;
10244;SDS011;5167;52.164;10.530;2023-10-31T07:47:28;4.10;;;3.15;;
10244;SDS011;5167;52.164;10.530;2023-10-31T07:49:53;1.98;;;1.88;;
10244;SDS011;5167;52.164;10.530;2023-10-31T07:52:19;3.47;;;2.20;;
10244;SDS011;5167;52.164;10.530;2023-10-31T07:54:44;4.32;;;1.92;;
10244;SDS011;5167;52.164;10.530;2023-10-31T07:57:10;8.60;;;2.15;;
10244;SDS011;5167;52.164;10.530;2023-10-31T07:59:36;2.78;;;2.10;;
10244;SDS011;5167;52.164;10.530;2023-10-31T08:02:01;3.95;;;2.53;;
10244;SDS011;5167;52.164;10.530;2023-10-31T08:04:28;3.70;;;2.25;;
10244;SDS011;5167;52.164;10.530;2023-10-31T08:06:55;3.63;;;2.60;;
10244;SDS011;5167;52.164;10.530;2023-10-31T08:09:20;2.65;;;2.30;;
10244;SDS011;5167;52.164;10.530;2023-10-31T08:11:46;4.32;;;3.35;;
10244;SDS011;5167;52.164;10.530;2023-10-31T08:14:11;2.67;;;2.47;;
10244;SDS011;5167;52.164;10.530;2023-10-31T08:16:37;3.95;;;2.30;;
10244;SDS011;5167;52.164;10.530;2023-10-31T08:19:02;4.82;;;2.60;;
10244;SDS011;5167;52.164;10.530;2023-10-31T08:21:28;2.97;;;2.35;;
10244;SDS011;5167;52.164;10.530;2023-10-31T08:23:58;4.55;;;2.05;;
10244;SDS011;5167;52.164;10.530;2023-10-31T08:26:24;2.75;;;2.28;;
10244;SDS011;5167;52.164;10.530;2023-10-31T08:28:50;2.00;;;1.90;;
10244;SDS011;5167;52.164;10.530;2023-10-31T08:31:16;4.28;;;2.80;;
10244;SDS011;5167;52.164;10.530;2023-10-31T08:33:42;3.45;;;2.78;;
10244;SDS011;5167;52.164;10.530;2023-10-31T08:36:08;2.85;;;2.50;;
10244;SDS011;5167;52.164;10.530;2023-10-31T08:38:33;2.65;;;2.45;;
10244;SDS011;5167;52.164;10.530;2023-10-31T08:40:59;3.45;;;2.55;;
10244;SDS011;5167;52.164;10.530;2023-10-31T08:43:25;5.32;;;2.25;;
10244;SDS011;5167;52.164;10.530;2023-10-31T08:45:50;2.63;;;2.40;;
10244;SDS011;5167;52.164;10.530;2023-10-31T08:48:16;2.15;;;2.05;;
10244;SDS011;5167;52.164;10.530;2023-10-31T08:50:41;2.55;;;2.13;;
10244;SDS011;5167;52.164;10.530;2023-10-31T08:53:07;4.13;;;2.72;;
10244;SDS011;5167;52.164;10.530;2023-10-31T08:55:32;4.90;;;2.65;;
10244;SDS011;5167;52.164;10.530;2023-10-31T08:57:58;2.95;;;2.47;;
10244;SDS011;5167;52.164;10.530;2023-10-31T09:00:23;2.80;;;2.60;;
10244;SDS011;5167;52.164;10.530;2023-10-31T09:02:49;3.30;;;2.75;;
10244;SDS011;5167;52.164;10.530;2023-10-31T09:05:15;3.67;;;2.88;;
10244;SDS011;5167;52.164;10.530;2023-10-31T09:07:41;3.92;;;3.05;;
10244;SDS011;5167;52.164;10.530;2023-10-31T09:10:06;2.95;;;2.75;;
10244;SDS011;5167;52.164;10.530;2023-10-31T09:12:32;4.00;;;2.80;;
10244;SDS011;5167;52.164;10.530;2023-10-31T09:14:58;6.90;;;2.72;;
10244;SDS011;5167;52.164;10.530;2023-10-31T09:17:23;6.93;;;3.38;;
10244;SDS011;5167;52.164;10.530;2023-10-31T09:19:49;4.63;;;3.47;;
10244;SDS011;5167;52.164;10.530;2023-10-31T09:22:14;5.55;;;3.33;;
10244;SDS011;5167;52.164;10.530;2023-10-31T09:24:41;4.18;;;3.17;;
10244;SDS011;5167;52.164;10.530;2023-10-31T09:27:07;4.60;;;2.80;;
10244;SDS011;5167;52.164;10.530;2023-10-31T09:29:34;4.57;;;2.75;;
10244;SDS011;5167;52.164;10.530;2023-10-31T09:32:00;4.57;;;3.28;;
10244;SDS011;5167;52.164;10.530;2023-10-31T09:34:25;4.80;;;2.60;;
10244;SDS011;5167;52.164;10.530;2023-10-31T09:36:51;2.47;;;1.83;;
10244;SDS011;5167;52.164;10.530;2023-10-31T09:39:16;1.92;;;1.83;;
10244;SDS011;5167;52.164;10.530;2023-10-31T09:41:42;2.00;;;1.85;;
10244;SDS011;5167;52.164;10.530;2023-10-31T09:44:07;1.35;;;1.25;;
10244;SDS011;5167;52.164;10.530;2023-10-31T09:46:33;1.70;;;1.60;;
10244;SDS011;5167;52.164;10.530;2023-10-31T09:49:00;2.10;;;1.20;;
10244;SDS011;5167;52.164;10.530;2023-10-31T09:51:26;2.17;;;1.45;;
10244;SDS011;5167;52.164;10.530;2023-10-31T09:53:54;2.20;;;1.10;;
10244;SDS011;5167;52.164;10.530;2023-10-31T09:56:21;1.35;;;1.27;;
10244;SDS011;5167;52.164;10.530;2023-10-31T09:58:47;1.08;;;1.08;;
10244;SDS011;5167;52.164;10.530;2023-10-31T10:01:13;2.22;;;1.45;;
10244;SDS011;5167;52.164;10.530;2023-10-31T10:03:39;1.45;;;1.13;;
10244;SDS011;5167;52.164;10.530;2023-10-31T10:06:05;1.30;;;1.20;;
10244;SDS011;5167;52.164;10.530;2023-10-31T10:08:31;1.20;;;1.10;;
10244;SDS011;5167;52.164;10.530;2023-10-31T10:11:01;1.15;;;1.10;;
10244;SDS011;5167;52.164;10.530;2023-10-31T10:13:27;2.70;;;1.10;;
10244;SDS011;5167;52.164;10.530;2023-10-31T10:15:53;1.52;;;1.25;;
10244;SDS011;5167;52.164;10.530;2023-10-31T10:18:29;4.55;;;1.17;;
10244;SDS011;5167;52.164;10.530;2023-10-31T10:20:59;1.15;;;1.05;;
10244;SDS011;5167;52.164;10.530;2023-10-31T10:23:26;0.88;;;0.88;;
10244;SDS011;5167;52.164;10.530;2023-10-31T10:25:53;1.10;;;0.82;;
10244;SDS011;5167;52.164;10.530;2023-10-31T10:28:19;1.38;;;0.90;;
10244;SDS011;5167;52.164;10.530;2023-10-31T10:30:48;0.70;;;0.70;;
10244;SDS011;5167;52.164;10.530;2023-10-31T10:33:14;0.70;;;0.70;;
10244;SDS011;5167;52.164;10.530;2023-10-31T10:35:40;0.75;;;0.75;;
10244;SDS011;5167;52.164;10.530;2023-10-31T10:38:10;2.55;;;0.65;;
10244;SDS011;5167;52.164;10.530;2023-10-31T10:40:40;0.60;;;0.60;;
10244;SDS011;5167;52.164;10.530;2023-10-31T10:43:08;1.73;;;0.80;;
10244;SDS011;5167;52.164;10.530;2023-10-31T10:45:42;0.40;;;0.40;;
10244;SDS011;5167;52.164;10.530;2023-10-31T10:48:11;0.47;;;0.47;;
10244;SDS011;5167;52.164;10.530;2023-10-31T10:50:43;1.45;;;0.60;;
10244;SDS011;5167;52.164;10.530;2023-10-31T10:55:46;0.45;;;0.45;;
10244;SDS011;5167;52.164;10.530;2023-10-31T11:00:52;0.60;;;0.60;;
10244;SDS011;5167;52.164;10.530;2023-10-31T11:03:20;0.57;;;0.50;;
10244;SDS011;5167;52.164;10.530;2023-10-31T11:05:49;0.80;;;0.77;;
10244;SDS011;5167;52.164;10.530;2023-10-31T11:08:15;0.60;;;0.60;;
10244;SDS011;5167;52.164;10.530;2023-10-31T11:10:41;1.75;;;0.70;;
10244;SDS011;5167;52.164;10.530;2023-10-31T11:13:07;0.70;;;0.57;;
10244;SDS011;5167;52.164;10.530;2023-10-31T11:15:34;0.50;;;0.50;;
10244;SDS011;5167;52.164;10.530;2023-10-31T11:18:00;0.57;;;0.57;;
10244;SDS011;5167;52.164;10.530;2023-10-31T11:20:27;0.40;;;0.40;;
10244;SDS011;5167;52.164;10.530;2023-10-31T11:22:54;0.77;;;0.63;;
10244;SDS011;5167;52.164;10.530;2023-10-31T11:25:24;0.70;;;0.70;;
10244;SDS011;5167;52.164;10.530;2023-10-31T11:27:50;1.35;;;0.80;;
10244;SDS011;5167;52.164;10.530;2023-10-31T11:32:53;0.95;;;0.82;;
10244;SDS011;5167;52.164;10.530;2023-10-31T11:35:20;3.25;;;0.60;;
10244;SDS011;5167;52.164;10.530;2023-10-31T11:37:48;0.50;;;0.50;;
10244;SDS011;5167;52.164;10.530;2023-10-31T11:40:16;0.95;;;0.60;;
10244;SDS011;5167;52.164;10.530;2023-10-31T11:42:44;0.73;;;0.73;;
10244;SDS011;5167;52.164;10.530;2023-10-31T11:45:23;2.38;;;0.60;;
10244;SDS011;5167;52.164;10.530;2023-10-31T11:47:59;0.50;;;0.50;;
10244;SDS011;5167;52.164;10.530;2023-10-31T11:50:24;2.50;;;0.50;;
10244;SDS011;5167;52.164;10.530;2023-10-31T11:55:33;0.60;;;0.60;;
10244;SDS011;5167;52.164;10.530;2023-10-31T12:00:38;2.13;;;1.10;;
10244;SDS011;5167;52.164;10.530;2023-10-31T12:03:03;1.58;;;1.00;;
10244;SDS011;5167;52.164;10.530;2023-10-31T12:05:29;0.80;;;0.80;;
10244;SDS011;5167;52.164;10.530;2023-10-31T12:07:55;0.85;;;0.80;;
10244;SDS011;5167;52.164;10.530;2023-10-31T12:10:22;1.60;;;0.90;;
10244;SDS011;5167;52.164;10.530;2023-10-31T12:12:49;0.95;;;0.90;;
10244;SDS011;5167;52.164;10.530;2023-10-31T12:15:15;0.80;;;0.80;;
10244;SDS011;5167;52.164;10.530;2023-10-31T12:17:40;1.73;;;1.10;;
10244;SDS011;5167;52.164;10.530;2023-10-31T12:20:06;1.00;;;0.90;;
10244;SDS011;5167;52.164;10.530;2023-10-31T12:22:33;1.73;;;1.27;;
10244;SDS011;5167;52.164;10.530;2023-10-31T12:25:02;2.75;;;1.30;;
10244;SDS011;5167;52.164;10.530;2023-10-31T12:27:45;1.48;;;1.10;;
10244;SDS011;5167;52.164;10.530;2023-10-31T12:30:15;1.98;;;1.38;;
10244;SDS011;5167;52.164;10.530;2023-10-31T12:32:42;1.38;;;1.27;;
10244;SDS011;5167;52.164;10.530;2023-10-31T12:35:10;1.70;;;1.48;;
10244;SDS011;5167;52.164;10.530;2023-10-31T12:37:44;1.40;;;1.30;;
10244;SDS011;5167;52.164;10.530;2023-10-31T12:40:15;2.20;;;1.60;;
10244;SDS011;5167;52.164;10.530;2023-10-31T12:42:43;2.60;;;1.58;;
10244;SDS011;5167;52.164;10.530;2023-10-31T12:45:09;2.40;;;1.85;;
10244;SDS011;5167;52.164;10.530;2023-10-31T12:47:36;3.15;;;2.13;;
10244;SDS011;5167;52.164;10.530;2023-10-31T12:50:12;3.40;;;2.30;;
10244;SDS011;5167;52.164;10.530;2023-10-31T12:52:45;4.68;;;2.13;;
10244;SDS011;5167;52.164;10.530;2023-10-31T12:55:16;3.88;;;2.17;;
10244;SDS011;5167;52.164;10.530;2023-10-31T12:57:42;3.30;;;2.42;;
10244;SDS011;5167;52.164;10.530;2023-10-31T13:00:09;2.13;;;1.77;;
10244;SDS011;5167;52.164;10.530;2023-10-31T13:02:37;1.95;;;1.83;;
10244;SDS011;5167;52.164;10.530;2023-10-31T13:05:07;1.90;;;1.80;;
10244;SDS011;5167;52.164;10.530;2023-10-31T13:07:33;1.98;;;1.75;;
10244;SDS011;5167;52.164;10.530;2023-10-31T13:09:59;1.80;;;1.70;;
10244;SDS011;5167;52.164;10.530;2023-10-31T13:12:25;3.22;;;2.45;;
10244;SDS011;5167;52.164;10.530;2023-10-31T13:14:52;3.20;;;2.20;;
10244;SDS011;5167;52.164;10.530;2023-10-31T13:17:17;2.03;;;1.83;;
10244;SDS011;5167;52.164;10.530;2023-10-31T13:19:44;3.15;;;2.22;;
10244;SDS011;5167;52.164;10.530;2023-10-31T13:22:09;4.15;;;2.20;;
10244;SDS011;5167;52.164;10.530;2023-10-31T13:24:35;3.55;;;1.90;;
10244;SDS011;5167;52.164;10.530;2023-10-31T13:27:00;2.22;;;2.00;;
10244;SDS011;5167;52.164;10.530;2023-10-31T13:29:27;2.33;;;2.03;;
10244;SDS011;5167;52.164;10.530;2023-10-31T13:31:53;2.35;;;2.15;;
10244;SDS011;5167;52.164;10.530;2023-10-31T13:34:18;1.80;;;1.70;;
10244;SDS011;5167;52.164;10.530;2023-10-31T13:36:44;3.00;;;2.50;;
10244;SDS011;5167;52.164;10.530;2023-10-31T13:39:09;1.88;;;1.77;;
10244;SDS011;5167;52.164;10.530;2023-10-31T13:41:35;2.45;;;1.92;;
10244;SDS011;5167;52.164;10.530;2023-10-31T13:44:01;2.15;;;1.98;;
10244;SDS011;5167;52.164;10.530;2023-10-31T13:46:28;2.30;;;2.00;;
10244;SDS011;5167;52.164;10.530;2023-10-31T13:48:54;3.28;;;1.90;;
10244;SDS011;5167;52.164;10.530;2023-10-31T13:51:19;3.25;;;1.90;;
10244;SDS011;5167;52.164;10.530;2023-10-31T13:53:45;2.72;;;2.33;;
10244;SDS011;5167;52.164;10.530;2023-10-31T13:56:11;2.45;;;2.20;;
10244;SDS011;5167;52.164;10.530;2023-10-31T13:58:36;3.78;;;2.10;;
10244;SDS011;5167;52.164;10.530;2023-10-31T14:01:02;3.58;;;2.42;;
10244;SDS011;5167;52.164;10.530;2023-10-31T14:03:27;4.47;;;2.33;;
10244;SDS011;5167;52.164;10.530;2023-10-31T14:05:53;3.63;;;2.33;;
10244;SDS011;5167;52.164;10.530;2023-10-31T14:08:19;2.97;;;2.50;;
10244;SDS011;5167;52.164;10.530;2023-10-31T14:10:44;5.35;;;2.90;;
10244;SDS011;5167;52.164;10.530;2023-10-31T14:13:11;5.35;;;3.45;;
10244;SDS011;5167;52.164;10.530;2023-10-31T14:15:37;3.95;;;2.60;;
10244;SDS011;5167;52.164;10.530;2023-10-31T14:18:02;5.65;;;2.60;;
10244;SDS011;5167;52.164;10.530;2023-10-31T14:20:28;4.15;;;2.58;;
10244;SDS011;5167;52.164;10.530;2023-10-31T14:22:54;2.50;;;2.20;;
10244;SDS011;5167;52.164;10.530;2023-10-31T14:25:20;8.40;;;2.80;;
10244;SDS011;5167;52.164;10.530;2023-10-31T14:27:45;2.60;;;2.40;;
10244;SDS011;5167;52.164;10.530;2023-10-31T14:30:11;4.68;;;2.88;;
10244;SDS011;5167;52.164;10.530;2023-10-31T14:32:37;3.08;;;2.63;;
10244;SDS011;5167;52.164;10.530;2023-10-31T14:35:04;2.53;;;2.28;;
10244;SDS011;5167;52.164;10.530;2023-10-31T14:37:30;2.58;;;2.13;;
10244;SDS011;5167;52.164;10.530;2023-10-31T14:39:55;5.45;;;2.45;;
10244;SDS011;5167;52.164;10.530;2023-10-31T14:42:21;2.60;;;2.40;;
10244;SDS011;5167;52.164;10.530;2023-10-31T14:44:47;5.45;;;3.10;;
10244;SDS011;5167;52.164;10.530;2023-10-31T14:47:12;6.15;;;4.20;;
10244;SDS011;5167;52.164;10.530;2023-10-31T14:49:38;3.65;;;3.10;;
10244;SDS011;5167;52.164;10.530;2023-10-31T14:52:04;6.90;;;3.58;;